Time;durP1;ratioP1;P1;durP2;ratioP2;P2;SDS_P1;SDS_P2;PMS_P1;PMS_P2;Temp;Humidity;BMP_temperature;BMP_pressure;BME280_temperature;BME280_humidity;BME280_pressure;Samples;Min_cycle;Max_cycle;Signal;HPM_P1;HPM_P2
2021/10/11 00:01:28;;;;;;;14.60;9.45;;;;;;;0.55;96.67;99468.41;4141084;28;20045;-71
2021/10/11 00:03:28;;;;;;;14.50;9.27;;;;;;;0.52;95.59;99471.72;4138498;28;20058;-71
2021/10/11 00:05:29;;;;;;;16.75;9.45;;;;;;;0.60;95.95;99470.28;4138538;28;20057;-71
2021/10/11 00:07:29;;;;;;;14.30;8.48;;;;;;;0.54;94.94;99469.50;4138327;28;20041;-72
2021/10/11 00:09:31;;;;;;;15.52;8.93;;;;;;;0.51;95.53;99473.63;4138436;28;20453;-72
2021/10/11 00:11:31;;;;;;;14.43;8.20;;;;;;;0.42;95.97;99469.91;4138360;28;20042;-72
2021/10/11 00:13:32;;;;;;;15.07;9.00;;;;;;;0.31;95.46;99471.06;4137092;28;20073;-71
2021/10/11 00:15:32;;;;;;;17.38;9.35;;;;;;;0.21;95.84;99463.00;4138074;28;20037;-72
2021/10/11 00:17:32;;;;;;;17.75;9.73;;;;;;;0.26;97.05;99471.16;4138133;28;20410;-71
2021/10/11 00:19:36;;;;;;;15.27;8.63;;;;;;;0.28;97.68;99469.75;4138127;28;20046;-71
2021/10/11 00:21:36;;;;;;;16.00;10.27;;;;;;;0.18;96.89;99474.47;4138310;28;20423;-71
2021/10/11 00:23:37;;;;;;;12.93;8.10;;;;;;;0.09;96.20;99462.59;4138606;28;20352;-72
2021/10/11 00:25:38;;;;;;;18.58;9.93;;;;;;;0.16;97.38;99455.69;4137865;28;20457;-71
2021/10/11 00:27:39;;;;;;;17.45;9.55;;;;;;;0.12;97.44;99462.81;4138184;28;20049;-71
2021/10/11 00:29:39;;;;;;;14.77;9.57;;;;;;;0.07;97.62;99462.03;4149663;28;20555;-71
2021/10/11 00:31:39;;;;;;;16.75;10.13;;;;;;;0.06;97.70;99465.84;4137353;28;20127;-71
2021/10/11 00:33:40;;;;;;;25.23;10.88;;;;;;;-0.05;97.40;99462.41;4138209;28;20156;-71
2021/10/11 00:35:40;;;;;;;15.40;9.25;;;;;;;-0.07;97.69;99467.34;4137936;28;20177;-71
2021/10/11 00:37:40;;;;;;;16.73;9.43;;;;;;;-0.14;97.79;99455.97;4138464;28;20493;-71
2021/10/11 00:39:41;;;;;;;20.88;11.52;;;;;;;-0.20;98.52;99468.78;4138198;28;20064;-71
2021/10/11 00:41:41;;;;;;;14.43;9.35;;;;;;;-0.25;98.44;99454.38;4137794;28;20100;-71
2021/10/11 00:43:41;;;;;;;15.25;8.63;;;;;;;-0.23;98.96;99461.19;4139723;28;20468;-71
2021/10/11 00:45:42;;;;;;;14.73;10.48;;;;;;;-0.27;98.88;99457.41;4137910;28;20049;-71
2021/10/11 00:47:42;;;;;;;15.52;8.90;;;;;;;-0.17;99.48;99467.38;4142816;28;20061;-71
2021/10/11 00:49:42;;;;;;;17.00;9.15;;;;;;;-0.24;98.86;99456.84;4137776;28;20038;-71
2021/10/11 00:51:43;;;;;;;21.75;11.18;;;;;;;-0.13;98.93;99463.84;4137975;28;20045;-71
2021/10/11 00:53:44;;;;;;;14.32;8.80;;;;;;;-0.13;98.44;99457.59;4138348;28;20133;-71
2021/10/11 00:55:44;;;;;;;17.67;9.10;;;;;;;-0.11;97.79;99460.81;4137884;28;20482;-71
2021/10/11 00:57:44;;;;;;;16.70;9.13;;;;;;;-0.13;97.45;99468.47;4137438;28;20050;-71
2021/10/11 00:59:45;;;;;;;14.40;10.00;;;;;;;-0.14;97.00;99464.13;4137947;28;20054;-71
2021/10/11 01:01:45;;;;;;;13.60;9.23;;;;;;;-0.08;97.55;99455.63;4141759;28;20042;-71
2021/10/11 01:03:46;;;;;;;24.40;9.15;;;;;;;0.05;97.12;99453.34;4137022;28;20084;-71
2021/10/11 01:05:46;;;;;;;14.75;9.30;;;;;;;0.03;96.27;99456.38;4139951;28;20049;-71
2021/10/11 01:07:47;;;;;;;14.95;9.10;;;;;;;0.05;97.00;99456.88;4137355;28;20073;-71
2021/10/11 01:09:48;;;;;;;17.65;9.30;;;;;;;-0.01;96.90;99447.13;4138814;28;20044;-72
2021/10/11 01:11:50;;;;;;;15.70;9.70;;;;;;;-0.06;96.69;99453.44;4137984;28;20042;-71
2021/10/11 01:13:50;;;;;;;20.25;9.95;;;;;;;-0.01;96.30;99450.66;4136329;28;20042;-71
2021/10/11 01:15:50;;;;;;;17.80;10.27;;;;;;;0.06;96.50;99436.72;4138294;28;20505;-71
2021/10/11 01:17:51;;;;;;;16.02;10.13;;;;;;;0.08;96.32;99439.16;4139669;28;20038;-71
2021/10/11 01:19:55;;;;;;;15.75;9.50;;;;;;;0.07;96.11;99422.03;4136984;28;20042;-71
2021/10/11 01:21:56;;;;;;;13.60;8.88;;;;;;;0.08;96.19;99431.00;4136951;28;20370;-71
2021/10/11 01:23:57;;;;;;;17.77;10.63;;;;;;;-0.01;95.84;99426.19;4136542;28;20426;-71
2021/10/11 01:25:58;;;;;;;19.00;9.35;;;;;;;-0.08;95.90;99431.16;4136412;28;20533;-71
2021/10/11 01:27:58;;;;;;;13.98;8.80;;;;;;;-0.10;96.14;99424.34;4137539;28;20046;-71
2021/10/11 01:29:59;;;;;;;14.75;9.63;;;;;;;-0.14;96.15;99426.03;4137146;28;20517;-71
2021/10/11 01:31:59;;;;;;;15.45;9.00;;;;;;;-0.17;96.61;99423.88;4136677;28;20100;-71
2021/10/11 01:34:00;;;;;;;13.60;8.80;;;;;;;-0.19;96.49;99426.06;4136136;28;20450;-72
2021/10/11 01:36:00;;;;;;;18.10;9.63;;;;;;;-0.25;97.08;99403.53;4138846;28;20134;-72
2021/10/11 01:38:01;;;;;;;16.00;10.30;;;;;;;-0.29;97.18;99413.38;4137745;28;20133;-72
2021/10/11 01:40:04;;;;;;;13.50;9.07;;;;;;;-0.29;97.01;99405.22;4141044;28;20201;-71
2021/10/11 01:42:04;;;;;;;15.50;9.50;;;;;;;-0.25;97.42;99400.00;4136965;28;20029;-71
2021/10/11 01:44:05;;;;;;;16.83;10.60;;;;;;;-0.28;96.66;99398.66;4136421;28;20034;-71
2021/10/11 01:46:05;;;;;;;16.35;9.48;;;;;;;-0.31;96.14;99407.41;4137041;28;20050;-72
2021/10/11 01:48:06;;;;;;;15.50;9.60;;;;;;;-0.41;96.11;99397.44;4140596;28;20025;-72
2021/10/11 01:50:07;;;;;;;16.15;10.80;;;;;;;-0.46;96.29;99405.59;4136940;28;20025;-72
2021/10/11 01:52:07;;;;;;;17.98;9.65;;;;;;;-0.46;97.29;99404.78;4140797;28;20049;-71
2021/10/11 01:54:07;;;;;;;15.32;10.10;;;;;;;-0.49;96.86;99408.09;4136358;28;20345;-71
2021/10/11 01:56:09;;;;;;;18.52;10.70;;;;;;;-0.60;96.64;99405.41;4137399;28;20033;-71
2021/10/11 01:58:09;;;;;;;15.30;9.70;;;;;;;-0.53;97.59;99398.84;4137160;28;20056;-71
2021/10/11 02:00:11;;;;;;;18.98;9.55;;;;;;;-0.43;97.61;99399.59;4136547;28;20116;-71
2021/10/11 02:02:11;;;;;;;16.58;10.05;;;;;;;-0.38;97.75;99385.16;4136983;28;20083;-71
2021/10/11 02:04:11;;;;;;;17.08;9.05;;;;;;;-0.41;96.90;99386.53;4135935;28;20425;-72
2021/10/11 02:06:12;;;;;;;15.25;8.95;;;;;;;-0.45;96.50;99390.09;4137886;28;20053;-72
2021/10/11 02:08:12;;;;;;;17.77;9.98;;;;;;;-0.52;96.45;99395.84;4140732;28;20068;-71
2021/10/11 02:10:13;;;;;;;15.32;9.40;;;;;;;-0.47;96.95;99384.16;4136449;28;20038;-71
2021/10/11 02:12:13;;;;;;;13.80;9.25;;;;;;;-0.47;96.55;99381.44;4137761;28;20028;-71
2021/10/11 02:14:13;;;;;;;18.25;8.98;;;;;;;-0.52;96.16;99370.56;4136213;28;20030;-72
2021/10/11 02:16:14;;;;;;;18.15;9.52;;;;;;;-0.59;96.61;99360.84;4137747;28;20381;-72
2021/10/11 02:18:14;;;;;;;14.77;9.27;;;;;;;-0.47;97.75;99365.13;4139237;28;20450;-72
2021/10/11 02:20:14;;;;;;;15.18;8.73;;;;;;;-0.49;97.32;99362.69;4140330;28;20037;-72
2021/10/11 02:22:15;;;;;;;16.02;8.90;;;;;;;-0.43;97.14;99358.00;4140828;28;20443;-72
2021/10/11 02:24:15;;;;;;;15.68;8.98;;;;;;;-0.39;96.68;99351.72;4136679;28;20724;-72
2021/10/11 02:26:15;;;;;;;13.27;8.55;;;;;;;-0.40;96.24;99354.72;4135968;28;20109;-72
2021/10/11 02:28:16;;;;;;;13.35;8.30;;;;;;;-0.34;96.65;99342.69;4136559;28;20109;-72
2021/10/11 02:30:16;;;;;;;16.20;9.00;;;;;;;-0.31;96.97;99339.41;4136694;28;20116;-72
2021/10/11 02:32:17;;;;;;;12.65;8.23;;;;;;;-0.27;96.54;99332.31;4136713;28;20041;-72
2021/10/11 02:34:17;;;;;;;13.55;8.40;;;;;;;-0.33;95.69;99337.00;4136086;28;20513;-72
2021/10/11 02:36:18;;;;;;;12.35;7.78;;;;;;;-0.38;95.29;99349.81;4136424;28;20030;-72
2021/10/11 02:38:18;;;;;;;11.13;7.55;;;;;;;-0.43;95.76;99361.53;4139288;28;20398;-72
2021/10/11 02:40:18;;;;;;;14.45;9.18;;;;;;;-0.45;96.96;99350.13;4139972;28;20149;-71
2021/10/11 02:42:19;;;;;;;12.75;8.13;;;;;;;-0.40;97.41;99357.44;4140275;28;20458;-71
2021/10/11 02:44:19;;;;;;;12.90;8.95;;;;;;;-0.43;97.86;99358.00;4138562;28;20493;-72
2021/10/11 02:46:19;;;;;;;13.55;8.90;;;;;;;-0.47;97.48;99357.75;4140593;28;20030;-72
2021/10/11 02:48:20;;;;;;;17.15;9.02;;;;;;;-0.47;97.55;99355.06;4142376;28;22298;-71
2021/10/11 02:50:20;;;;;;;18.88;9.93;;;;;;;-0.48;98.38;99358.88;4139346;28;20100;-72
2021/10/11 02:52:21;;;;;;;16.52;9.32;;;;;;;-0.52;98.83;99344.22;4139435;28;20034;-72
2021/10/11 02:54:21;;;;;;;17.67;9.75;;;;;;;-0.51;99.05;99337.66;4138594;28;20097;-72
2021/10/11 02:56:21;;;;;;;14.70;8.73;;;;;;;-0.48;99.42;99337.13;4139400;28;20478;-72
2021/10/11 02:58:22;;;;;;;15.07;9.00;;;;;;;-0.49;99.05;99346.38;4139531;28;20041;-72
2021/10/11 03:00:23;;;;;;;14.75;8.63;;;;;;;-0.42;99.26;99337.88;4138962;28;20133;-72
2021/10/11 03:02:23;;;;;;;14.23;8.40;;;;;;;-0.37;99.11;99338.66;4140477;28;20049;-72
2021/10/11 03:04:24;;;;;;;18.33;9.38;;;;;;;-0.38;98.88;99347.09;4141083;28;20299;-72
2021/10/11 03:06:24;;;;;;;11.75;8.20;;;;;;;-0.42;98.49;99333.25;4139903;28;20124;-72
2021/10/11 03:08:24;;;;;;;18.02;9.73;;;;;;;-0.48;98.40;99347.19;4139370;28;20050;-72
2021/10/11 03:10:25;;;;;;;14.23;8.45;;;;;;;-0.52;98.79;99338.75;4138682;28;20444;-71
2021/10/11 03:12:25;;;;;;;18.20;9.90;;;;;;;-0.44;99.29;99332.72;4142260;28;20769;-71
2021/10/11 03:14:25;;;;;;;17.73;8.93;;;;;;;-0.35;99.34;99331.00;4143167;28;20081;-72
2021/10/11 03:16:26;;;;;;;14.43;8.75;;;;;;;-0.28;98.60;99326.06;4142253;28;20049;-73
2021/10/11 03:18:26;;;;;;;15.75;10.10;;;;;;;-0.23;98.32;99317.03;4144296;28;20042;-72
2021/10/11 03:20:27;;;;;;;14.80;8.90;;;;;;;-0.11;98.38;99306.56;4143671;28;20049;-72
2021/10/11 03:22:27;;;;;;;15.65;9.40;;;;;;;-0.06;97.78;99300.28;4142225;28;20069;-72
2021/10/11 03:24:27;;;;;;;15.50;8.95;;;;;;;0.00;96.95;99290.97;4142429;28;20072;-72
2021/10/11 03:26:28;;;;;;;16.40;9.70;;;;;;;0.03;96.68;99290.38;4141442;28;20501;-72
2021/10/11 03:28:28;;;;;;;15.75;9.55;;;;;;;0.00;96.69;99304.59;4143028;28;20433;-72
2021/10/11 03:30:28;;;;;;;19.50;9.93;;;;;;;-0.10;97.25;99315.53;4143304;28;20561;-72
2021/10/11 03:32:29;;;;;;;17.88;9.80;;;;;;;-0.20;97.36;99307.50;4143463;28;20049;-72
2021/10/11 03:34:29;;;;;;;17.98;8.35;;;;;;;-0.17;98.20;99310.44;4143980;28;20044;-72
2021/10/11 03:36:29;;;;;;;17.77;9.43;;;;;;;-0.22;98.27;99307.78;4142157;28;20065;-72
2021/10/11 03:38:30;;;;;;;18.75;10.90;;;;;;;-0.25;98.54;99319.22;4143408;28;20448;-72
2021/10/11 03:40:30;;;;;;;19.50;10.90;;;;;;;-0.25;98.87;99318.41;4144722;28;20045;-72
2021/10/11 03:42:31;;;;;;;16.77;11.30;;;;;;;-0.27;99.27;99321.41;4143971;28;20474;-72
2021/10/11 03:44:31;;;;;;;15.93;10.23;;;;;;;-0.28;99.38;99311.66;4141454;28;20073;-72
2021/10/11 03:46:33;;;;;;;18.67;11.13;;;;;;;-0.27;99.32;99313.25;4143931;28;20649;-72
2021/10/11 03:48:33;;;;;;;17.77;10.60;;;;;;;-0.29;99.37;99318.19;4141189;28;20421;-72
2021/10/11 03:50:34;;;;;;;18.45;9.65;;;;;;;-0.33;99.42;99312.53;4141615;28;20041;-72
2021/10/11 03:52:34;;;;;;;17.95;11.25;;;;;;;-0.35;99.31;99317.41;4142900;28;20072;-72
2021/10/11 03:54:34;;;;;;;20.77;9.73;;;;;;;-0.37;99.64;99310.66;4140386;28;20037;-72
2021/10/11 03:56:35;;;;;;;17.70;9.10;;;;;;;-0.37;99.84;99313.38;4133442;28;20136;-72
2021/10/11 03:58:35;;;;;;;16.45;9.70;;;;;;;-0.38;99.86;99317.19;4133677;28;20037;-72
2021/10/11 04:00:36;;;;;;;16.60;9.80;;;;;;;-0.40;99.87;99320.19;4137219;28;20050;-72
2021/10/11 04:02:37;;;;;;;16.05;10.60;;;;;;;-0.38;100.00;99331.59;4141400;28;20073;-72
2021/10/11 04:04:37;;;;;;;16.58;9.95;;;;;;;-0.36;100.00;99340.25;4134064;28;20447;-71
2021/10/11 04:06:37;;;;;;;14.95;9.45;;;;;;;-0.36;100.00;99336.72;4133735;28;20050;-72
2021/10/11 04:08:43;;;;;;;16.75;10.90;;;;;;;-0.34;100.00;99320.94;4139600;28;20049;-72
2021/10/11 04:11:05;;;;;;;17.95;11.05;;;;;;;-0.31;100.00;99325.81;4138126;28;20058;-73
2021/10/11 04:13:06;;;;;;;18.92;12.25;;;;;;;-0.25;100.00;99329.28;4137891;28;20069;-72
2021/10/11 04:15:10;;;;;;;14.75;10.13;;;;;;;-0.19;100.00;99331.69;4137398;28;20056;-72
2021/10/11 04:17:11;;;;;;;19.48;11.07;;;;;;;-0.12;100.00;99334.88;4138295;28;20513;-72
2021/10/11 04:19:11;;;;;;;21.30;12.32;;;;;;;-0.02;100.00;99331.25;4137831;28;20076;-72
2021/10/11 04:21:11;;;;;;;21.60;11.63;;;;;;;0.02;100.00;99315.16;4139245;28;20041;-72
2021/10/11 04:23:12;;;;;;;18.15;11.65;;;;;;;0.05;100.00;99317.31;4137421;28;20106;-72
2021/10/11 04:25:13;;;;;;;15.57;9.70;;;;;;;0.06;100.00;99321.66;4140178;28;20049;-72
2021/10/11 04:27:13;;;;;;;19.15;11.93;;;;;;;0.08;100.00;99328.41;4137995;28;20054;-72
2021/10/11 04:29:13;;;;;;;25.20;15.43;;;;;;;0.09;100.00;99334.69;4137689;28;20512;-71
2021/10/11 04:31:14;;;;;;;28.20;18.35;;;;;;;0.13;100.00;99333.00;4138357;28;20045;-72
2021/10/11 04:33:14;;;;;;;31.60;19.33;;;;;;;0.14;100.00;99340.88;4137169;28;20092;-72
2021/10/11 04:35:15;;;;;;;39.60;23.88;;;;;;;0.26;100.00;99333.13;4137826;28;20791;-72
2021/10/11 04:37:15;;;;;;;30.75;20.10;;;;;;;0.26;100.00;99324.16;4137974;28;20050;-72
2021/10/11 04:39:15;;;;;;;26.88;18.27;;;;;;;0.34;100.00;99336.31;4137937;28;20605;-72
2021/10/11 04:41:16;;;;;;;24.98;16.25;;;;;;;0.38;100.00;99331.91;4137766;28;20473;-72
2021/10/11 04:43:17;;;;;;;23.15;15.00;;;;;;;0.45;100.00;99330.47;4137199;28;20050;-72
2021/10/11 04:45:17;;;;;;;22.33;13.80;;;;;;;0.51;100.00;99339.38;4142500;28;20419;-72
2021/10/11 04:47:17;;;;;;;20.15;14.15;;;;;;;0.54;98.59;99336.06;4138007;28;20078;-72
2021/10/11 04:49:18;;;;;;;20.15;12.80;;;;;;;0.61;98.33;99335.72;4137576;28;20578;-70
2021/10/11 04:51:18;;;;;;;21.65;13.75;;;;;;;0.65;98.40;99332.09;4137575;28;20050;-71
2021/10/11 04:53:18;;;;;;;21.58;12.82;;;;;;;0.66;97.78;99343.81;4136791;28;20065;-71
2021/10/11 04:55:19;;;;;;;17.75;12.10;;;;;;;0.66;97.96;99322.81;4137523;28;20125;-71
2021/10/11 04:57:19;;;;;;;19.65;12.43;;;;;;;0.68;97.59;99325.28;4139967;28;20137;-71
2021/10/11 04:59:19;;;;;;;15.52;11.32;;;;;;;0.68;97.66;99320.66;4137120;28;20435;-71
2021/10/11 05:01:21;;;;;;;18.30;10.90;;;;;;;0.72;97.39;99320.84;4137603;28;20133;-71
2021/10/11 05:03:21;;;;;;;20.52;10.40;;;;;;;0.72;96.86;99320.84;4136698;28;20364;-71
2021/10/11 05:05:22;;;;;;;16.10;10.68;;;;;;;0.65;96.82;99320.41;4137306;28;20042;-71
2021/10/11 05:07:22;;;;;;;16.13;10.13;;;;;;;0.59;97.29;99327.84;4137695;28;20038;-71
2021/10/11 05:09:22;;;;;;;14.23;9.38;;;;;;;0.57;97.41;99321.84;4142156;28;20548;-71
2021/10/11 05:11:23;;;;;;;19.77;9.50;;;;;;;0.58;97.24;99331.69;4137487;28;20478;-71
2021/10/11 05:13:23;;;;;;;14.80;10.43;;;;;;;0.57;97.10;99324.59;4136415;28;20249;-71
2021/10/11 05:15:23;;;;;;;16.38;8.75;;;;;;;0.48;97.21;99318.97;4137655;28;20129;-71
2021/10/11 05:17:24;;;;;;;20.13;10.23;;;;;;;0.49;97.50;99319.78;4137843;28;20476;-72
2021/10/11 05:19:25;;;;;;;21.05;10.35;;;;;;;0.47;97.60;99322.81;4142814;28;20052;-71
2021/10/11 05:21:26;;;;;;;16.33;9.13;;;;;;;0.44;97.60;99322.59;4137302;28;20069;-71
2021/10/11 05:23:26;;;;;;;15.60;9.48;;;;;;;0.45;97.80;99321.47;4136547;28;20438;-71
2021/10/11 05:25:28;;;;;;;19.40;9.63;;;;;;;0.43;97.50;99324.50;4137393;28;20088;-71
2021/10/11 05:27:28;;;;;;;18.20;9.63;;;;;;;0.40;97.76;99325.06;4137129;28;20510;-72
2021/10/11 05:29:28;;;;;;;15.23;8.77;;;;;;;0.38;97.88;99340.88;4144384;28;20100;-71
2021/10/11 05:31:29;;;;;;;20.20;9.45;;;;;;;0.37;97.72;99341.19;4139703;28;20132;-72
2021/10/11 05:33:29;;;;;;;16.60;9.52;;;;;;;0.42;98.12;99335.69;4136036;28;20602;-72
2021/10/11 05:35:30;;;;;;;16.67;10.05;;;;;;;0.42;97.78;99341.13;4136844;28;20065;-71
2021/10/11 05:37:30;;;;;;;15.52;8.77;;;;;;;0.45;97.70;99333.19;4139788;28;20064;-72
2021/10/11 05:39:31;;;;;;;14.02;8.80;;;;;;;0.48;97.47;99329.06;4136859;28;20057;-72
2021/10/11 05:41:31;;;;;;;15.98;9.70;;;;;;;0.52;97.71;99332.84;4136804;28;20042;-71
2021/10/11 05:43:31;;;;;;;17.70;9.57;;;;;;;0.49;97.50;99311.63;4136349;28;20471;-71
2021/10/11 05:45:32;;;;;;;21.52;9.93;;;;;;;0.50;97.35;99324.97;4137153;28;20465;-71
2021/10/11 05:47:32;;;;;;;20.98;10.27;;;;;;;0.54;97.56;99327.91;4136771;28;20108;-71
2021/10/11 05:49:33;;;;;;;18.50;10.07;;;;;;;0.52;97.53;99321.94;4136353;28;20037;-71
2021/10/11 05:51:33;;;;;;;20.52;11.00;;;;;;;0.50;97.55;99326.88;4137554;28;20054;-71
2021/10/11 05:53:33;;;;;;;21.20;10.77;;;;;;;0.51;97.87;99323.84;4138333;28;20494;-71
2021/10/11 05:55:34;;;;;;;17.02;9.30;;;;;;;0.55;98.08;99324.06;4136300;28;20044;-71
2021/10/11 05:57:35;;;;;;;14.95;9.77;;;;;;;0.52;98.37;99317.31;4137388;28;20116;-72
2021/10/11 05:59:35;;;;;;;24.40;11.05;;;;;;;0.53;98.50;99315.38;4139559;28;20033;-72
2021/10/11 06:01:37;;;;;;;21.25;12.07;;;;;;;0.55;98.41;99314.00;4136776;28;20036;-72
2021/10/11 06:03:37;;;;;;;25.10;12.60;;;;;;;0.54;98.68;99317.81;4135924;28;20049;-72
2021/10/11 06:05:37;;;;;;;17.35;10.25;;;;;;;0.59;98.34;99310.69;4136962;28;20422;-71
2021/10/11 06:07:38;;;;;;;22.27;11.02;;;;;;;0.64;97.99;99316.06;4136867;28;20049;-72
2021/10/11 06:09:38;;;;;;;27.50;13.82;;;;;;;0.64;98.82;99325.03;4136659;28;20080;-71
2021/10/11 06:11:39;;;;;;;27.60;12.98;;;;;;;0.64;99.55;99325.03;4137101;28;20046;-71
2021/10/11 06:13:39;;;;;;;25.13;13.00;;;;;;;0.67;99.69;99321.75;4139282;28;20046;-71
2021/10/11 06:15:40;;;;;;;23.55;11.93;;;;;;;0.70;99.08;99312.97;4140092;28;20105;-71
2021/10/11 06:17:40;;;;;;;34.40;15.57;;;;;;;0.75;98.99;99312.94;4139793;28;20478;-71
2021/10/11 06:19:40;;;;;;;42.25;21.52;;;;;;;0.76;99.70;99311.81;4140270;28;20042;-71
2021/10/11 06:21:41;;;;;;;31.00;16.15;;;;;;;0.78;99.45;99315.06;4140095;28;20033;-71
2021/10/11 06:23:41;;;;;;;28.33;15.95;;;;;;;0.81;99.60;99327.28;4139466;28;20053;-71
2021/10/11 06:25:42;;;;;;;22.35;14.13;;;;;;;0.84;99.59;99329.44;4139899;28;20038;-71
2021/10/11 06:27:42;;;;;;;31.23;15.88;;;;;;;0.87;99.07;99323.38;4143313;28;20046;-71
2021/10/11 06:29:42;;;;;;;22.60;13.70;;;;;;;0.94;98.39;99320.28;4139907;28;20144;-71
2021/10/11 06:31:43;;;;;;;23.23;13.07;;;;;;;1.01;97.81;99320.75;4140387;28;20054;-71
2021/10/11 06:33:43;;;;;;;21.23;14.25;;;;;;;1.03;98.66;99321.25;4138869;28;20046;-71
2021/10/11 06:35:43;;;;;;;24.73;14.80;;;;;;;1.05;98.55;99319.84;4139781;28;20042;-71
2021/10/11 06:37:44;;;;;;;21.52;13.40;;;;;;;1.10;99.33;99327.16;4140257;28;20399;-71
2021/10/11 06:39:44;;;;;;;19.73;13.63;;;;;;;1.16;99.53;99327.88;4140977;28;20034;-72
2021/10/11 06:41:44;;;;;;;23.02;14.63;;;;;;;1.21;99.35;99333.25;4144575;28;20076;-72
2021/10/11 06:43:44;;;;;;;20.85;13.57;;;;;;;1.23;99.40;99326.38;4139017;28;20549;-71
2021/10/11 06:45:45;;;;;;;19.80;13.20;;;;;;;1.28;99.93;99330.97;4139534;28;20478;-71
2021/10/11 06:47:47;;;;;;;30.20;13.68;;;;;;;1.33;99.81;99334.44;4141340;28;20044;-71
2021/10/11 06:49:47;;;;;;;18.47;12.20;;;;;;;1.38;99.40;99338.97;4139340;28;20048;-72
2021/10/11 06:51:48;;;;;;;16.08;11.15;;;;;;;1.45;99.40;99342.16;4142490;28;20724;-72
2021/10/11 06:53:48;;;;;;;15.88;11.20;;;;;;;1.49;99.52;99339.63;4138198;28;20038;-71
2021/10/11 06:55:48;;;;;;;18.90;11.43;;;;;;;1.54;99.27;99334.91;4139657;28;20493;-71
2021/10/11 06:57:49;;;;;;;17.88;10.98;;;;;;;1.60;99.76;99335.66;4139742;28;20156;-71
2021/10/11 06:59:49;;;;;;;21.45;13.02;;;;;;;1.67;100.00;99334.16;4139362;28;20042;-71
2021/10/11 07:01:49;;;;;;;19.35;12.00;;;;;;;1.73;100.00;99331.31;4139036;28;20347;-71
2021/10/11 07:03:50;;;;;;;19.20;11.43;;;;;;;1.79;100.00;99338.31;4139136;28;20081;-71
2021/10/11 07:06:01;;;;;;;19.85;13.75;;;;;;;1.85;100.00;99339.88;4139185;28;20475;-72
2021/10/11 07:08:08;;;;;;;23.38;13.68;;;;;;;1.92;100.00;99341.09;4139421;28;20053;-72
2021/10/11 07:10:09;;;;;;;18.83;12.55;;;;;;;1.96;100.00;99342.09;4140959;28;20056;-72
2021/10/11 07:12:09;;;;;;;17.75;11.30;;;;;;;2.02;100.00;99337.38;4144117;28;20087;-72
2021/10/11 07:14:09;;;;;;;17.23;11.10;;;;;;;2.03;99.35;99336.25;4138358;28;20032;-72
2021/10/11 07:16:10;;;;;;;15.48;10.07;;;;;;;2.11;98.92;99348.41;4138831;28;20079;-72
2021/10/11 07:18:10;;;;;;;16.75;11.10;;;;;;;2.15;98.62;99352.97;4139334;28;20045;-72
2021/10/11 07:20:11;;;;;;;17.60;11.25;;;;;;;2.20;98.27;99349.31;4139146;28;20038;-72
2021/10/11 07:22:16;;;;;;;18.73;11.77;;;;;;;2.28;98.64;99354.09;4139063;28;20112;-71
2021/10/11 07:24:18;;;;;;;18.35;12.70;;;;;;;2.32;98.87;99346.91;4138545;28;20214;-71
2021/10/11 07:26:18;;;;;;;16.33;10.68;;;;;;;2.40;98.46;99359.88;4137908;28;20037;-71
2021/10/11 07:28:18;;;;;;;21.38;14.65;;;;;;;2.53;98.96;99360.97;4139146;28;20398;-72
2021/10/11 07:30:19;;;;;;;21.95;13.77;;;;;;;2.62;100.00;99355.59;4138541;28;20025;-71
2021/10/11 07:32:19;;;;;;;23.30;15.25;;;;;;;2.67;100.00;99352.78;4139386;28;20100;-71
2021/10/11 07:34:21;;;;;;;22.58;14.55;;;;;;;2.74;100.00;99367.66;4138029;28;20045;-71
2021/10/11 07:36:22;;;;;;;34.70;21.05;;;;;;;2.91;100.00;99363.50;4139042;28;20042;-71
2021/10/11 07:38:22;;;;;;;38.63;25.35;;;;;;;3.00;100.00;99359.72;4139049;28;20029;-71
2021/10/11 07:40:22;;;;;;;34.63;20.80;;;;;;;3.08;100.00;99358.19;4139188;28;20045;-71
2021/10/11 07:42:23;;;;;;;31.80;19.45;;;;;;;3.18;100.00;99363.44;4138886;28;20845;-71
2021/10/11 07:44:23;;;;;;;33.35;20.15;;;;;;;3.27;100.00;99353.38;4137838;28;20042;-71
2021/10/11 07:46:25;;;;;;;36.92;19.85;;;;;;;3.32;100.00;99350.53;4138756;28;20355;-71
2021/10/11 07:48:25;;;;;;;37.97;24.50;;;;;;;3.50;100.00;99358.88;4138364;28;20038;-71
2021/10/11 07:50:25;;;;;;;34.28;21.42;;;;;;;3.64;100.00;99354.97;4138756;28;20033;-71
2021/10/11 07:52:26;;;;;;;29.27;17.35;;;;;;;3.86;100.00;99362.38;4139089;28;20493;-71
2021/10/11 07:54:26;;;;;;;32.72;17.92;;;;;;;3.99;100.00;99366.16;4137697;28;20042;-71
2021/10/11 07:56:27;;;;;;;28.45;15.80;;;;;;;4.11;100.00;99360.91;4142827;28;20093;-72
2021/10/11 07:58:27;;;;;;;32.22;19.40;;;;;;;4.19;100.00;99367.56;4143238;28;20037;-72
2021/10/11 08:00:27;;;;;;;37.42;17.88;;;;;;;4.25;100.00;99369.03;4138316;28;20042;-72
2021/10/11 08:02:28;;;;;;;33.53;19.80;;;;;;;4.31;100.00;99370.53;4140878;28;20068;-72
2021/10/11 08:04:28;;;;;;;31.75;18.60;;;;;;;4.40;100.00;99374.13;4137429;28;20046;-71
2021/10/11 08:06:29;;;;;;;36.70;20.48;;;;;;;4.49;100.00;99377.69;4138732;28;20038;-71
2021/10/11 08:08:33;;;;;;;53.05;24.50;;;;;;;4.57;100.00;99365.16;4138401;28;20038;-71
2021/10/11 08:10:34;;;;;;;37.90;20.98;;;;;;;4.75;100.00;99371.50;4138357;28;20816;-71
2021/10/11 08:12:34;;;;;;;34.60;20.80;;;;;;;4.76;100.00;99368.44;4138270;28;20357;-71
2021/10/11 08:14:35;;;;;;;43.40;23.77;;;;;;;4.76;100.00;99368.44;4143763;28;20068;-71
2021/10/11 08:16:35;;;;;;;37.35;20.65;;;;;;;4.83;100.00;99380.88;4137900;28;20385;-71
2021/10/11 08:18:36;;;;;;;31.33;18.73;;;;;;;4.83;100.00;99375.41;4138482;28;20370;-72
2021/10/11 08:20:36;;;;;;;33.13;21.10;;;;;;;4.86;100.00;99375.56;4138594;28;20050;-71
2021/10/11 08:22:37;;;;;;;34.92;20.20;;;;;;;4.89;99.82;99379.63;4137894;28;20042;-71
2021/10/11 08:24:38;;;;;;;42.38;20.27;;;;;;;4.92;99.68;99379.78;4137385;28;20112;-72
2021/10/11 08:26:39;;;;;;;35.33;21.35;;;;;;;4.99;100.00;99384.81;4138116;28;20034;-72
2021/10/11 08:28:39;;;;;;;31.58;20.45;;;;;;;5.03;100.00;99386.56;4142950;28;20104;-72
2021/10/11 08:30:41;;;;;;;33.25;20.25;;;;;;;5.04;100.00;99376.41;4138268;28;20494;-72
2021/10/11 08:32:41;;;;;;;32.92;20.70;;;;;;;5.11;99.70;99381.44;4139406;28;20404;-71
2021/10/11 08:34:42;;;;;;;34.40;22.05;;;;;;;5.14;99.88;99384.34;4140012;28;20538;-71
2021/10/11 08:36:42;;;;;;;33.33;19.60;;;;;;;5.16;99.93;99373.88;4137880;28;20069;-72
2021/10/11 08:38:43;;;;;;;34.08;19.40;;;;;;;5.21;99.66;99383.88;4138267;28;20129;-72
2021/10/11 08:40:47;;;;;;;35.92;21.60;;;;;;;5.19;100.00;99381.44;4138203;28;20046;-71
2021/10/11 08:42:49;;;;;;;31.73;20.15;;;;;;;5.25;100.00;99390.34;4143076;28;20084;-71
2021/10/11 08:44:49;;;;;;;36.00;22.05;;;;;;;5.32;99.68;99386.00;4137114;28;20489;-71
2021/10/11 08:46:50;;;;;;;34.95;20.27;;;;;;;5.39;99.27;99385.53;4137965;28;20053;-71
2021/10/11 08:48:50;;;;;;;33.10;19.33;;;;;;;5.44;99.99;99390.84;4137919;28;20113;-71
2021/10/11 08:50:50;;;;;;;36.83;22.00;;;;;;;5.46;100.00;99377.63;4137896;28;20464;-71
2021/10/11 08:52:51;;;;;;;39.38;25.48;;;;;;;5.53;99.89;99391.66;4137689;28;20493;-71
2021/10/11 08:54:53;;;;;;;44.70;24.17;;;;;;;5.64;100.00;99394.91;4136931;28;20053;-71
2021/10/11 08:56:53;;;;;;;40.80;23.10;;;;;;;5.63;99.85;99394.09;4138285;28;20525;-71
2021/10/11 08:58:54;;;;;;;44.08;25.55;;;;;;;5.69;99.84;99385.69;4137862;28;20219;-71
2021/10/11 09:01:05;;;;;;;41.10;23.88;;;;;;;5.69;100.00;99381.00;4137873;28;20033;-71
2021/10/11 09:03:07;;;;;;;42.60;23.63;;;;;;;5.75;100.00;99387.13;4137160;28;20521;-71
2021/10/11 09:05:07;;;;;;;47.87;25.70;;;;;;;5.79;100.00;99379.84;4137115;28;20046;-71
2021/10/11 09:07:08;;;;;;;50.55;27.23;;;;;;;5.85;100.00;99382.13;4137613;28;20347;-71
2021/10/11 09:09:09;;;;;;;52.67;28.83;;;;;;;5.95;100.00;99383.75;4137849;28;20383;-71
2021/10/11 09:11:14;;;;;;;49.40;28.23;;;;;;;6.08;100.00;99391.00;4137475;28;20096;-71
2021/10/11 09:13:14;;;;;;;50.13;28.20;;;;;;;6.15;100.00;99391.31;4136304;28;20137;-71
2021/10/11 09:15:14;;;;;;;50.47;27.48;;;;;;;6.21;100.00;99391.97;4139817;28;20779;-71
2021/10/11 09:17:25;;;;;;;52.03;26.60;;;;;;;6.32;100.00;99381.41;4137500;28;20049;-71
2021/10/11 09:19:32;;;;;;;42.97;26.15;;;;;;;6.40;100.00;99388.84;4137388;28;20137;-71
2021/10/11 09:21:35;;;;;;;48.75;28.35;;;;;;;6.51;100.00;99387.34;4137085;28;20378;-71